sensor_id;sensor_type;location;lat;lon;timestamp;P1;durP1;ratioP1;P2;durP2;ratioP2
17414;SDS011;8825;48.086;16.426;2024-03-25T00:01:08;18.73;;;17.93;;
17414;SDS011;8825;48.086;16.426;2024-03-25T00:03:35;17.53;;;16.80;;
17414;SDS011;8825;48.086;16.426;2024-03-25T00:06:03;15.30;;;14.60;;
17414;SDS011;8825;48.086;16.426;2024-03-25T00:08:31;14.13;;;13.53;;
17414;SDS011;8825;48.086;16.426;2024-03-25T00:10:58;11.77;;;11.27;;
17414;SDS011;8825;48.086;16.426;2024-03-25T00:13:26;17.33;;;16.63;;
17414;SDS011;8825;48.086;16.426;2024-03-25T00:15:53;22.10;;;21.10;;
17414;SDS011;8825;48.086;16.426;2024-03-25T00:18:21;19.93;;;19.13;;
17414;SDS011;8825;48.086;16.426;2024-03-25T00:20:48;19.33;;;18.57;;
17414;SDS011;8825;48.086;16.426;2024-03-25T00:23:17;18.37;;;17.63;;
17414;SDS011;8825;48.086;16.426;2024-03-25T00:25:45;15.83;;;15.10;;
17414;SDS011;8825;48.086;16.426;2024-03-25T00:28:12;14.67;;;14.10;;
17414;SDS011;8825;48.086;16.426;2024-03-25T00:30:40;17.57;;;16.83;;
17414;SDS011;8825;48.086;16.426;2024-03-25T00:33:08;18.27;;;17.30;;
17414;SDS011;8825;48.086;16.426;2024-03-25T00:35:36;28.60;;;27.40;;
17414;SDS011;8825;48.086;16.426;2024-03-25T00:38:04;20.03;;;19.20;;
17414;SDS011;8825;48.086;16.426;2024-03-25T00:40:33;23.70;;;22.67;;
17414;SDS011;8825;48.086;16.426;2024-03-25T00:43:00;30.13;;;28.93;;
17414;SDS011;8825;48.086;16.426;2024-03-25T00:45:28;21.63;;;20.70;;
17414;SDS011;8825;48.086;16.426;2024-03-25T00:47:56;18.87;;;18.03;;
17414;SDS011;8825;48.086;16.426;2024-03-25T00:50:28;13.10;;;12.57;;
17414;SDS011;8825;48.086;16.426;2024-03-25T00:52:55;18.07;;;17.33;;
17414;SDS011;8825;48.086;16.426;2024-03-25T00:55:23;25.77;;;24.70;;
17414;SDS011;8825;48.086;16.426;2024-03-25T00:57:50;13.03;;;12.50;;
17414;SDS011;8825;48.086;16.426;2024-03-25T01:00:18;14.37;;;13.73;;
17414;SDS011;8825;48.086;16.426;2024-03-25T01:02:46;14.73;;;14.07;;
17414;SDS011;8825;48.086;16.426;2024-03-25T01:05:14;23.47;;;22.50;;
17414;SDS011;8825;48.086;16.426;2024-03-25T01:07:41;19.77;;;18.97;;
17414;SDS011;8825;48.086;16.426;2024-03-25T01:10:09;20.07;;;19.20;;
17414;SDS011;8825;48.086;16.426;2024-03-25T01:12:37;21.80;;;20.90;;
17414;SDS011;8825;48.086;16.426;2024-03-25T01:15:05;20.33;;;19.30;;
17414;SDS011;8825;48.086;16.426;2024-03-25T01:17:33;20.50;;;19.63;;
17414;SDS011;8825;48.086;16.426;2024-03-25T01:20:00;23.67;;;22.73;;
17414;SDS011;8825;48.086;16.426;2024-03-25T01:22:30;19.87;;;19.07;;
17414;SDS011;8825;48.086;16.426;2024-03-25T01:24:58;19.70;;;18.87;;
17414;SDS011;8825;48.086;16.426;2024-03-25T01:27:25;20.87;;;20.03;;
17414;SDS011;8825;48.086;16.426;2024-03-25T01:29:53;19.70;;;18.87;;
17414;SDS011;8825;48.086;16.426;2024-03-25T01:32:20;25.73;;;24.60;;
17414;SDS011;8825;48.086;16.426;2024-03-25T01:34:48;15.73;;;15.03;;
17414;SDS011;8825;48.086;16.426;2024-03-25T01:37:15;14.63;;;14.03;;
17414;SDS011;8825;48.086;16.426;2024-03-25T01:39:43;26.47;;;25.37;;
17414;SDS011;8825;48.086;16.426;2024-03-25T01:42:11;18.03;;;17.07;;
17414;SDS011;8825;48.086;16.426;2024-03-25T01:44:40;15.77;;;15.07;;
17414;SDS011;8825;48.086;16.426;2024-03-25T01:47:07;16.57;;;15.77;;
17414;SDS011;8825;48.086;16.426;2024-03-25T01:49:35;23.83;;;22.83;;
17414;SDS011;8825;48.086;16.426;2024-03-25T01:52:03;25.83;;;24.73;;
17414;SDS011;8825;48.086;16.426;2024-03-25T01:54:31;16.03;;;15.23;;
17414;SDS011;8825;48.086;16.426;2024-03-25T01:56:59;29.07;;;27.90;;
17414;SDS011;8825;48.086;16.426;2024-03-25T01:59:27;15.93;;;15.30;;
17414;SDS011;8825;48.086;16.426;2024-03-25T02:01:55;16.93;;;16.23;;
17414;SDS011;8825;48.086;16.426;2024-03-25T02:04:24;17.67;;;16.93;;
17414;SDS011;8825;48.086;16.426;2024-03-25T02:06:51;27.80;;;26.73;;
17414;SDS011;8825;48.086;16.426;2024-03-25T02:09:21;15.17;;;14.50;;
17414;SDS011;8825;48.086;16.426;2024-03-25T02:11:50;30.33;;;29.10;;
17414;SDS011;8825;48.086;16.426;2024-03-25T02:14:19;16.17;;;15.47;;
17414;SDS011;8825;48.086;16.426;2024-03-25T02:16:47;13.00;;;12.50;;
17414;SDS011;8825;48.086;16.426;2024-03-25T02:19:15;14.13;;;13.57;;
17414;SDS011;8825;48.086;16.426;2024-03-25T02:21:43;12.97;;;12.47;;
17414;SDS011;8825;48.086;16.426;2024-03-25T02:24:11;12.33;;;11.83;;
17414;SDS011;8825;48.086;16.426;2024-03-25T02:26:40;15.77;;;15.07;;
17414;SDS011;8825;48.086;16.426;2024-03-25T02:29:11;12.47;;;11.97;;
17414;SDS011;8825;48.086;16.426;2024-03-25T02:31:38;16.37;;;15.73;;
17414;SDS011;8825;48.086;16.426;2024-03-25T02:34:06;20.23;;;19.33;;
17414;SDS011;8825;48.086;16.426;2024-03-25T02:36:33;20.67;;;19.87;;
17414;SDS011;8825;48.086;16.426;2024-03-25T02:39:01;21.07;;;20.17;;
17414;SDS011;8825;48.086;16.426;2024-03-25T02:41:30;14.97;;;14.27;;
17414;SDS011;8825;48.086;16.426;2024-03-25T02:43:59;21.07;;;20.17;;
17414;SDS011;8825;48.086;16.426;2024-03-25T02:46:27;19.53;;;18.73;;
17414;SDS011;8825;48.086;16.426;2024-03-25T02:48:54;22.20;;;21.27;;
17414;SDS011;8825;48.086;16.426;2024-03-25T02:51:22;14.20;;;13.60;;
17414;SDS011;8825;48.086;16.426;2024-03-25T02:53:49;19.13;;;18.30;;
17414;SDS011;8825;48.086;16.426;2024-03-25T02:56:17;15.97;;;15.20;;
17414;SDS011;8825;48.086;16.426;2024-03-25T02:58:44;17.50;;;16.70;;
17414;SDS011;8825;48.086;16.426;2024-03-25T03:01:12;17.40;;;16.70;;
17414;SDS011;8825;48.086;16.426;2024-03-25T03:03:39;17.70;;;16.90;;
17414;SDS011;8825;48.086;16.426;2024-03-25T03:06:07;16.50;;;15.60;;
17414;SDS011;8825;48.086;16.426;2024-03-25T03:08:35;17.80;;;16.90;;
17414;SDS011;8825;48.086;16.426;2024-03-25T03:11:02;19.20;;;18.40;;
17414;SDS011;8825;48.086;16.426;2024-03-25T03:13:30;21.60;;;20.60;;
17414;SDS011;8825;48.086;16.426;2024-03-25T03:15:58;17.83;;;17.07;;
17414;SDS011;8825;48.086;16.426;2024-03-25T03:18:25;17.20;;;16.43;;
17414;SDS011;8825;48.086;16.426;2024-03-25T03:20:53;17.03;;;16.23;;
17414;SDS011;8825;48.086;16.426;2024-03-25T03:23:24;19.43;;;18.53;;
17414;SDS011;8825;48.086;16.426;2024-03-25T03:25:51;19.70;;;18.80;;
17414;SDS011;8825;48.086;16.426;2024-03-25T03:28:19;19.17;;;18.37;;
17414;SDS011;8825;48.086;16.426;2024-03-25T03:30:46;19.77;;;18.87;;
17414;SDS011;8825;48.086;16.426;2024-03-25T03:33:14;14.57;;;13.87;;
17414;SDS011;8825;48.086;16.426;2024-03-25T03:35:42;14.13;;;13.43;;
17414;SDS011;8825;48.086;16.426;2024-03-25T03:38:09;15.00;;;14.20;;
17414;SDS011;8825;48.086;16.426;2024-03-25T03:40:37;15.60;;;14.80;;
17414;SDS011;8825;48.086;16.426;2024-03-25T03:43:04;15.93;;;15.20;;
17414;SDS011;8825;48.086;16.426;2024-03-25T03:45:33;19.47;;;18.53;;
17414;SDS011;8825;48.086;16.426;2024-03-25T03:48:04;15.20;;;14.40;;
17414;SDS011;8825;48.086;16.426;2024-03-25T03:50:32;19.70;;;18.80;;
17414;SDS011;8825;48.086;16.426;2024-03-25T03:52:59;17.77;;;16.97;;
17414;SDS011;8825;48.086;16.426;2024-03-25T03:55:27;17.77;;;16.97;;
17414;SDS011;8825;48.086;16.426;2024-03-25T03:57:54;16.13;;;15.43;;
17414;SDS011;8825;48.086;16.426;2024-03-25T04:00:22;15.77;;;15.07;;
17414;SDS011;8825;48.086;16.426;2024-03-25T04:02:49;13.47;;;12.77;;
17414;SDS011;8825;48.086;16.426;2024-03-25T04:05:17;13.33;;;12.47;;
17414;SDS011;8825;48.086;16.426;2024-03-25T04:07:45;15.30;;;14.60;;
17414;SDS011;8825;48.086;16.426;2024-03-25T04:10:12;14.10;;;13.50;;
17414;SDS011;8825;48.086;16.426;2024-03-25T04:12:41;13.43;;;12.70;;
17414;SDS011;8825;48.086;16.426;2024-03-25T04:15:08;15.53;;;14.83;;
17414;SDS011;8825;48.086;16.426;2024-03-25T04:17:37;16.53;;;15.83;;
17414;SDS011;8825;48.086;16.426;2024-03-25T04:20:05;22.57;;;21.27;;
17414;SDS011;8825;48.086;16.426;2024-03-25T04:22:34;16.73;;;15.90;;
17414;SDS011;8825;48.086;16.426;2024-03-25T04:25:02;16.57;;;15.80;;
17414;SDS011;8825;48.086;16.426;2024-03-25T04:27:30;15.90;;;15.03;;
17414;SDS011;8825;48.086;16.426;2024-03-25T04:29:57;16.20;;;15.40;;
17414;SDS011;8825;48.086;16.426;2024-03-25T04:32:25;13.83;;;13.17;;
17414;SDS011;8825;48.086;16.426;2024-03-25T04:34:52;15.27;;;14.47;;
17414;SDS011;8825;48.086;16.426;2024-03-25T04:37:20;17.80;;;17.00;;
17414;SDS011;8825;48.086;16.426;2024-03-25T04:39:47;14.93;;;14.33;;
17414;SDS011;8825;48.086;16.426;2024-03-25T04:42:15;15.47;;;14.77;;
17414;SDS011;8825;48.086;16.426;2024-03-25T04:44:42;15.67;;;14.87;;
17414;SDS011;8825;48.086;16.426;2024-03-25T04:47:10;15.27;;;14.57;;
17414;SDS011;8825;48.086;16.426;2024-03-25T04:49:38;14.10;;;13.20;;
17414;SDS011;8825;48.086;16.426;2024-03-25T04:52:05;13.93;;;13.30;;
17414;SDS011;8825;48.086;16.426;2024-03-25T04:54:33;20.43;;;19.57;;
17414;SDS011;8825;48.086;16.426;2024-03-25T04:57:00;23.00;;;21.93;;
17414;SDS011;8825;48.086;16.426;2024-03-25T04:59:28;19.97;;;19.00;;
17414;SDS011;8825;48.086;16.426;2024-03-25T05:01:55;20.53;;;19.63;;
17414;SDS011;8825;48.086;16.426;2024-03-25T05:04:23;15.60;;;14.63;;
17414;SDS011;8825;48.086;16.426;2024-03-25T05:06:51;25.10;;;24.00;;
17414;SDS011;8825;48.086;16.426;2024-03-25T05:09:18;19.97;;;19.07;;
17414;SDS011;8825;48.086;16.426;2024-03-25T05:11:46;13.97;;;13.37;;
17414;SDS011;8825;48.086;16.426;2024-03-25T05:14:14;22.00;;;20.90;;
17414;SDS011;8825;48.086;16.426;2024-03-25T05:16:41;25.77;;;24.60;;
17414;SDS011;8825;48.086;16.426;2024-03-25T05:19:08;14.23;;;13.57;;
17414;SDS011;8825;48.086;16.426;2024-03-25T05:21:36;14.67;;;13.87;;
17414;SDS011;8825;48.086;16.426;2024-03-25T05:24:03;14.13;;;13.43;;
17414;SDS011;8825;48.086;16.426;2024-03-25T05:26:31;12.27;;;11.57;;
17414;SDS011;8825;48.086;16.426;2024-03-25T05:28:59;16.80;;;15.90;;
17414;SDS011;8825;48.086;16.426;2024-03-25T05:31:26;15.40;;;14.70;;
17414;SDS011;8825;48.086;16.426;2024-03-25T05:33:54;13.00;;;12.20;;
17414;SDS011;8825;48.086;16.426;2024-03-25T05:36:22;12.53;;;11.93;;
17414;SDS011;8825;48.086;16.426;2024-03-25T05:38:49;22.00;;;21.00;;
17414;SDS011;8825;48.086;16.426;2024-03-25T05:41:17;16.90;;;15.90;;
17414;SDS011;8825;48.086;16.426;2024-03-25T05:43:44;12.20;;;11.50;;
17414;SDS011;8825;48.086;16.426;2024-03-25T05:46:12;15.03;;;14.17;;
17414;SDS011;8825;48.086;16.426;2024-03-25T05:48:40;13.57;;;12.87;;
17414;SDS011;8825;48.086;16.426;2024-03-25T05:51:07;12.10;;;11.50;;
17414;SDS011;8825;48.086;16.426;2024-03-25T05:53:35;17.00;;;16.10;;
17414;SDS011;8825;48.086;16.426;2024-03-25T05:56:03;18.47;;;17.63;;
17414;SDS011;8825;48.086;16.426;2024-03-25T05:58:31;13.67;;;13.07;;
17414;SDS011;8825;48.086;16.426;2024-03-25T06:00:59;13.83;;;13.17;;
17414;SDS011;8825;48.086;16.426;2024-03-25T06:03:27;15.93;;;15.13;;
17414;SDS011;8825;48.086;16.426;2024-03-25T06:05:54;21.07;;;20.13;;
17414;SDS011;8825;48.086;16.426;2024-03-25T06:08:22;17.87;;;17.03;;
17414;SDS011;8825;48.086;16.426;2024-03-25T06:10:52;19.03;;;18.23;;
17414;SDS011;8825;48.086;16.426;2024-03-25T06:13:20;21.33;;;20.40;;
17414;SDS011;8825;48.086;16.426;2024-03-25T06:15:48;28.93;;;27.67;;
17414;SDS011;8825;48.086;16.426;2024-03-25T06:18:15;20.97;;;20.00;;
17414;SDS011;8825;48.086;16.426;2024-03-25T06:20:43;22.90;;;21.80;;
17414;SDS011;8825;48.086;16.426;2024-03-25T06:23:10;29.10;;;27.77;;
17414;SDS011;8825;48.086;16.426;2024-03-25T06:25:39;28.17;;;26.77;;
17414;SDS011;8825;48.086;16.426;2024-03-25T06:28:07;34.97;;;33.37;;
17414;SDS011;8825;48.086;16.426;2024-03-25T06:30:35;40.27;;;38.20;;
17414;SDS011;8825;48.086;16.426;2024-03-25T06:33:20;40.00;;;38.33;;
17414;SDS011;8825;48.086;16.426;2024-03-25T06:36:06;23.93;;;22.90;;
17414;SDS011;8825;48.086;16.426;2024-03-25T06:38:33;32.50;;;30.97;;
17414;SDS011;8825;48.086;16.426;2024-03-25T06:41:01;55.90;;;53.63;;
17414;SDS011;8825;48.086;16.426;2024-03-25T06:43:29;37.93;;;36.23;;
17414;SDS011;8825;48.086;16.426;2024-03-25T06:45:56;45.80;;;43.80;;
17414;SDS011;8825;48.086;16.426;2024-03-25T06:48:24;35.10;;;33.53;;
17414;SDS011;8825;48.086;16.426;2024-03-25T06:50:55;41.83;;;40.10;;
17414;SDS011;8825;48.086;16.426;2024-03-25T06:53:23;40.80;;;38.97;;
17414;SDS011;8825;48.086;16.426;2024-03-25T06:55:52;44.83;;;42.93;;
17414;SDS011;8825;48.086;16.426;2024-03-25T06:58:20;53.40;;;51.07;;
17414;SDS011;8825;48.086;16.426;2024-03-25T07:00:49;48.17;;;46.17;;
17414;SDS011;8825;48.086;16.426;2024-03-25T07:03:20;60.00;;;57.47;;
17414;SDS011;8825;48.086;16.426;2024-03-25T07:05:49;51.67;;;49.53;;
17414;SDS011;8825;48.086;16.426;2024-03-25T07:08:22;57.87;;;55.50;;
17414;SDS011;8825;48.086;16.426;2024-03-25T07:10:49;46.63;;;44.63;;
17414;SDS011;8825;48.086;16.426;2024-03-25T07:13:18;43.90;;;42.03;;
17414;SDS011;8825;48.086;16.426;2024-03-25T07:15:46;42.83;;;41.00;;
17414;SDS011;8825;48.086;16.426;2024-03-25T07:18:13;41.97;;;40.13;;
17414;SDS011;8825;48.086;16.426;2024-03-25T07:20:42;62.97;;;60.17;;
17414;SDS011;8825;48.086;16.426;2024-03-25T07:23:10;30.87;;;29.33;;
17414;SDS011;8825;48.086;16.426;2024-03-25T07:25:38;51.57;;;49.40;;
17414;SDS011;8825;48.086;16.426;2024-03-25T07:28:06;47.40;;;45.47;;
17414;SDS011;8825;48.086;16.426;2024-03-25T07:30:33;45.37;;;43.37;;
17414;SDS011;8825;48.086;16.426;2024-03-25T07:33:01;100.43;;;96.23;;
17414;SDS011;8825;48.086;16.426;2024-03-25T07:35:29;43.67;;;41.77;;
17414;SDS011;8825;48.086;16.426;2024-03-25T07:37:56;41.13;;;39.37;;
17414;SDS011;8825;48.086;16.426;2024-03-25T07:40:24;44.53;;;42.63;;
17414;SDS011;8825;48.086;16.426;2024-03-25T07:42:51;62.03;;;59.53;;
17414;SDS011;8825;48.086;16.426;2024-03-25T07:45:19;72.70;;;69.83;;
17414;SDS011;8825;48.086;16.426;2024-03-25T07:47:46;64.30;;;61.47;;
17414;SDS011;8825;48.086;16.426;2024-03-25T07:50:14;52.30;;;50.20;;
17414;SDS011;8825;48.086;16.426;2024-03-25T07:52:41;65.27;;;62.53;;
17414;SDS011;8825;48.086;16.426;2024-03-25T07:55:09;95.03;;;91.17;;
17414;SDS011;8825;48.086;16.426;2024-03-25T07:57:38;61.40;;;58.97;;
17414;SDS011;8825;48.086;16.426;2024-03-25T08:00:06;47.87;;;45.83;;
17414;SDS011;8825;48.086;16.426;2024-03-25T08:02:36;94.80;;;90.93;;
17414;SDS011;8825;48.086;16.426;2024-03-25T08:05:04;78.00;;;74.97;;
17414;SDS011;8825;48.086;16.426;2024-03-25T08:07:32;77.63;;;74.53;;
17414;SDS011;8825;48.086;16.426;2024-03-25T08:10:00;103.87;;;99.47;;
17414;SDS011;8825;48.086;16.426;2024-03-25T08:12:29;56.23;;;53.73;;
17414;SDS011;8825;48.086;16.426;2024-03-25T08:14:56;50.40;;;48.23;;
17414;SDS011;8825;48.086;16.426;2024-03-25T08:17:24;52.17;;;49.97;;
17414;SDS011;8825;48.086;16.426;2024-03-25T08:19:52;53.90;;;51.60;;
17414;SDS011;8825;48.086;16.426;2024-03-25T08:22:19;44.23;;;42.33;;
17414;SDS011;8825;48.086;16.426;2024-03-25T08:24:47;49.03;;;46.70;;
17414;SDS011;8825;48.086;16.426;2024-03-25T08:27:15;49.87;;;47.67;;
17414;SDS011;8825;48.086;16.426;2024-03-25T08:29:42;51.97;;;49.53;;
17414;SDS011;8825;48.086;16.426;2024-03-25T08:32:10;58.83;;;56.30;;
17414;SDS011;8825;48.086;16.426;2024-03-25T08:34:37;51.57;;;49.23;;
17414;SDS011;8825;48.086;16.426;2024-03-25T08:37:05;35.80;;;34.30;;
17414;SDS011;8825;48.086;16.426;2024-03-25T08:39:32;47.90;;;45.87;;
17414;SDS011;8825;48.086;16.426;2024-03-25T08:42:00;40.77;;;39.07;;
17414;SDS011;8825;48.086;16.426;2024-03-25T08:44:27;41.13;;;39.43;;
17414;SDS011;8825;48.086;16.426;2024-03-25T08:46:55;44.37;;;42.60;;
17414;SDS011;8825;48.086;16.426;2024-03-25T08:49:22;39.00;;;37.37;;
17414;SDS011;8825;48.086;16.426;2024-03-25T08:51:50;38.67;;;37.03;;
17414;SDS011;8825;48.086;16.426;2024-03-25T08:54:17;33.03;;;31.47;;
17414;SDS011;8825;48.086;16.426;2024-03-25T08:56:45;47.77;;;45.80;;
17414;SDS011;8825;48.086;16.426;2024-03-25T08:59:12;41.27;;;39.60;;
17414;SDS011;8825;48.086;16.426;2024-03-25T09:01:39;39.83;;;38.10;;
17414;SDS011;8825;48.086;16.426;2024-03-25T09:04:07;46.80;;;44.67;;
17414;SDS011;8825;48.086;16.426;2024-03-25T09:06:35;35.67;;;34.17;;
17414;SDS011;8825;48.086;16.426;2024-03-25T09:09:03;39.00;;;37.40;;
17414;SDS011;8825;48.086;16.426;2024-03-25T09:11:49;32.67;;;31.17;;
17414;SDS011;8825;48.086;16.426;2024-03-25T09:14:16;28.70;;;27.43;;
17414;SDS011;8825;48.086;16.426;2024-03-25T09:16:44;42.67;;;40.87;;
17414;SDS011;8825;48.086;16.426;2024-03-25T09:19:11;52.23;;;50.10;;
17414;SDS011;8825;48.086;16.426;2024-03-25T09:21:39;35.63;;;34.20;;
17414;SDS011;8825;48.086;16.426;2024-03-25T09:24:06;40.77;;;39.13;;
17414;SDS011;8825;48.086;16.426;2024-03-25T09:26:34;48.20;;;46.20;;
17414;SDS011;8825;48.086;16.426;2024-03-25T09:29:01;74.43;;;71.47;;
17414;SDS011;8825;48.086;16.426;2024-03-25T09:31:29;54.17;;;51.87;;
17414;SDS011;8825;48.086;16.426;2024-03-25T09:33:56;50.43;;;48.33;;
17414;SDS011;8825;48.086;16.426;2024-03-25T09:36:24;41.67;;;39.93;;
17414;SDS011;8825;48.086;16.426;2024-03-25T09:38:52;37.57;;;35.97;;
17414;SDS011;8825;48.086;16.426;2024-03-25T09:41:19;29.20;;;27.97;;
17414;SDS011;8825;48.086;16.426;2024-03-25T09:43:48;37.63;;;35.93;;
17414;SDS011;8825;48.086;16.426;2024-03-25T09:46:17;42.77;;;40.73;;
17414;SDS011;8825;48.086;16.426;2024-03-25T09:48:44;39.67;;;37.83;;
17414;SDS011;8825;48.086;16.426;2024-03-25T09:51:12;31.63;;;30.33;;
17414;SDS011;8825;48.086;16.426;2024-03-25T09:53:40;72.77;;;69.87;;
17414;SDS011;8825;48.086;16.426;2024-03-25T09:56:07;23.30;;;22.40;;
17414;SDS011;8825;48.086;16.426;2024-03-25T09:58:36;27.37;;;26.20;;
17414;SDS011;8825;48.086;16.426;2024-03-25T10:01:04;33.67;;;32.27;;
17414;SDS011;8825;48.086;16.426;2024-03-25T10:03:31;26.87;;;25.77;;
17414;SDS011;8825;48.086;16.426;2024-03-25T10:05:59;23.13;;;22.00;;
17414;SDS011;8825;48.086;16.426;2024-03-25T10:08:26;32.37;;;31.03;;
17414;SDS011;8825;48.086;16.426;2024-03-25T10:10:55;32.63;;;31.23;;
17414;SDS011;8825;48.086;16.426;2024-03-25T10:13:24;39.47;;;37.87;;
17414;SDS011;8825;48.086;16.426;2024-03-25T10:15:54;57.33;;;54.97;;
17414;SDS011;8825;48.086;16.426;2024-03-25T10:18:22;78.70;;;75.63;;
17414;SDS011;8825;48.086;16.426;2024-03-25T10:20:50;74.03;;;71.13;;
17414;SDS011;8825;48.086;16.426;2024-03-25T10:23:21;74.47;;;71.57;;
17414;SDS011;8825;48.086;16.426;2024-03-25T10:25:52;62.53;;;60.03;;
17414;SDS011;8825;48.086;16.426;2024-03-25T10:28:20;106.67;;;102.20;;
17414;SDS011;8825;48.086;16.426;2024-03-25T10:30:47;78.47;;;75.27;;
17414;SDS011;8825;48.086;16.426;2024-03-25T10:33:15;117.93;;;113.50;;
17414;SDS011;8825;48.086;16.426;2024-03-25T10:35:44;142.70;;;137.10;;
17414;SDS011;8825;48.086;16.426;2024-03-25T10:38:13;136.50;;;131.07;;
17414;SDS011;8825;48.086;16.426;2024-03-25T10:40:43;136.47;;;131.07;;
17414;SDS011;8825;48.086;16.426;2024-03-25T10:43:12;120.13;;;115.30;;
17414;SDS011;8825;48.086;16.426;2024-03-25T10:45:42;82.63;;;79.40;;
17414;SDS011;8825;48.086;16.426;2024-03-25T10:48:15;79.87;;;76.50;;
17414;SDS011;8825;48.086;16.426;2024-03-25T10:50:46;87.47;;;83.77;;
17414;SDS011;8825;48.086;16.426;2024-03-25T10:53:18;123.00;;;118.20;;
17414;SDS011;8825;48.086;16.426;2024-03-25T10:55:48;88.63;;;85.13;;
17414;SDS011;8825;48.086;16.426;2024-03-25T10:58:19;83.23;;;80.03;;
17414;SDS011;8825;48.086;16.426;2024-03-25T11:00:49;102.80;;;98.73;;
17414;SDS011;8825;48.086;16.426;2024-03-25T11:03:20;43.37;;;41.63;;
17414;SDS011;8825;48.086;16.426;2024-03-25T11:05:49;44.73;;;42.67;;
17414;SDS011;8825;48.086;16.426;2024-03-25T11:08:17;45.47;;;43.60;;
17414;SDS011;8825;48.086;16.426;2024-03-25T11:10:45;43.73;;;41.97;;
17414;SDS011;8825;48.086;16.426;2024-03-25T11:13:14;90.30;;;86.73;;
17414;SDS011;8825;48.086;16.426;2024-03-25T11:15:45;74.43;;;71.33;;
17414;SDS011;8825;48.086;16.426;2024-03-25T11:18:21;95.07;;;91.37;;
17414;SDS011;8825;48.086;16.426;2024-03-25T11:20:46;79.20;;;76.00;;
17414;SDS011;8825;48.086;16.426;2024-03-25T11:23:13;101.17;;;97.27;;
17414;SDS011;8825;48.086;16.426;2024-03-25T11:25:41;48.87;;;46.93;;
17414;SDS011;8825;48.086;16.426;2024-03-25T11:28:09;48.73;;;46.73;;
17414;SDS011;8825;48.086;16.426;2024-03-25T11:30:37;90.97;;;87.40;;
17414;SDS011;8825;48.086;16.426;2024-03-25T11:33:06;105.00;;;100.90;;
17414;SDS011;8825;48.086;16.426;2024-03-25T11:35:37;68.93;;;66.17;;
17414;SDS011;8825;48.086;16.426;2024-03-25T11:38:04;153.80;;;147.73;;
17414;SDS011;8825;48.086;16.426;2024-03-25T11:40:32;69.53;;;66.73;;
17414;SDS011;8825;48.086;16.426;2024-03-25T11:43:00;79.23;;;76.07;;
17414;SDS011;8825;48.086;16.426;2024-03-25T11:45:28;83.20;;;79.83;;
17414;SDS011;8825;48.086;16.426;2024-03-25T11:47:56;77.67;;;74.67;;
17414;SDS011;8825;48.086;16.426;2024-03-25T11:50:25;73.80;;;70.83;;
17414;SDS011;8825;48.086;16.426;2024-03-25T11:52:52;108.30;;;104.10;;
17414;SDS011;8825;48.086;16.426;2024-03-25T11:55:20;88.80;;;85.40;;
17414;SDS011;8825;48.086;16.426;2024-03-25T11:57:54;129.20;;;124.30;;
17414;SDS011;8825;48.086;16.426;2024-03-25T12:00:23;78.13;;;75.13;;
17414;SDS011;8825;48.086;16.426;2024-03-25T12:02:51;94.60;;;90.93;;
17414;SDS011;8825;48.086;16.426;2024-03-25T12:05:19;64.67;;;62.07;;
17414;SDS011;8825;48.086;16.426;2024-03-25T12:07:47;67.30;;;64.60;;
17414;SDS011;8825;48.086;16.426;2024-03-25T12:10:16;59.77;;;57.27;;
17414;SDS011;8825;48.086;16.426;2024-03-25T12:13:02;69.03;;;66.23;;
17414;SDS011;8825;48.086;16.426;2024-03-25T12:15:30;95.50;;;91.80;;
17414;SDS011;8825;48.086;16.426;2024-03-25T12:17:58;100.73;;;96.70;;
17414;SDS011;8825;48.086;16.426;2024-03-25T12:20:25;103.87;;;99.83;;
17414;SDS011;8825;48.086;16.426;2024-03-25T12:22:53;94.27;;;90.57;;
17414;SDS011;8825;48.086;16.426;2024-03-25T12:25:20;117.10;;;112.53;;
17414;SDS011;8825;48.086;16.426;2024-03-25T12:27:48;137.17;;;131.80;;
17414;SDS011;8825;48.086;16.426;2024-03-25T12:30:19;111.53;;;107.23;;
17414;SDS011;8825;48.086;16.426;2024-03-25T12:32:46;125.83;;;120.93;;
17414;SDS011;8825;48.086;16.426;2024-03-25T12:35:14;119.57;;;114.33;;
17414;SDS011;8825;48.086;16.426;2024-03-25T12:37:43;131.80;;;126.67;;
17414;SDS011;8825;48.086;16.426;2024-03-25T12:40:12;130.87;;;125.70;;
17414;SDS011;8825;48.086;16.426;2024-03-25T12:42:54;93.67;;;89.90;;
17414;SDS011;8825;48.086;16.426;2024-03-25T12:45:23;97.77;;;93.77;;
17414;SDS011;8825;48.086;16.426;2024-03-25T12:47:51;98.80;;;94.93;;
17414;SDS011;8825;48.086;16.426;2024-03-25T12:50:18;127.43;;;122.47;;
17414;SDS011;8825;48.086;16.426;2024-03-25T12:52:48;103.13;;;99.03;;
17414;SDS011;8825;48.086;16.426;2024-03-25T12:55:15;83.40;;;80.17;;
17414;SDS011;8825;48.086;16.426;2024-03-25T12:57:43;106.03;;;101.73;;
17414;SDS011;8825;48.086;16.426;2024-03-25T13:00:10;74.47;;;71.53;;
17414;SDS011;8825;48.086;16.426;2024-03-25T13:02:39;111.47;;;106.90;;
17414;SDS011;8825;48.086;16.426;2024-03-25T13:05:06;96.30;;;91.00;;
17414;SDS011;8825;48.086;16.426;2024-03-25T13:07:34;89.37;;;85.40;;
17414;SDS011;8825;48.086;16.426;2024-03-25T13:10:01;88.23;;;84.80;;
17414;SDS011;8825;48.086;16.426;2024-03-25T13:12:30;107.33;;;103.10;;
17414;SDS011;8825;48.086;16.426;2024-03-25T13:14:58;101.57;;;97.53;;
17414;SDS011;8825;48.086;16.426;2024-03-25T13:17:26;107.93;;;103.53;;
17414;SDS011;8825;48.086;16.426;2024-03-25T13:19:53;119.03;;;114.20;;
17414;SDS011;8825;48.086;16.426;2024-03-25T13:22:21;71.80;;;68.90;;
17414;SDS011;8825;48.086;16.426;2024-03-25T13:24:49;99.60;;;95.80;;
17414;SDS011;8825;48.086;16.426;2024-03-25T13:27:16;104.53;;;100.33;;
17414;SDS011;8825;48.086;16.426;2024-03-25T13:29:44;134.03;;;128.73;;
17414;SDS011;8825;48.086;16.426;2024-03-25T13:32:11;122.37;;;117.57;;
17414;SDS011;8825;48.086;16.426;2024-03-25T13:34:39;132.17;;;127.03;;
17414;SDS011;8825;48.086;16.426;2024-03-25T13:37:06;164.80;;;158.20;;
17414;SDS011;8825;48.086;16.426;2024-03-25T13:39:34;78.70;;;75.63;;
17414;SDS011;8825;48.086;16.426;2024-03-25T13:42:01;96.70;;;92.90;;
17414;SDS011;8825;48.086;16.426;2024-03-25T13:44:29;92.73;;;89.07;;
17414;SDS011;8825;48.086;16.426;2024-03-25T13:46:57;123.90;;;119.10;;
17414;SDS011;8825;48.086;16.426;2024-03-25T13:49:24;132.27;;;127.13;;
17414;SDS011;8825;48.086;16.426;2024-03-25T13:51:57;120.63;;;116.03;;
17414;SDS011;8825;48.086;16.426;2024-03-25T13:54:28;125.37;;;120.63;;
17414;SDS011;8825;48.086;16.426;2024-03-25T13:56:57;134.10;;;128.87;;
17414;SDS011;8825;48.086;16.426;2024-03-25T13:59:24;125.00;;;120.10;;
17414;SDS011;8825;48.086;16.426;2024-03-25T14:01:52;140.80;;;135.30;;
17414;SDS011;8825;48.086;16.426;2024-03-25T14:04:20;91.73;;;88.13;;
17414;SDS011;8825;48.086;16.426;2024-03-25T14:06:48;110.60;;;106.43;;
17414;SDS011;8825;48.086;16.426;2024-03-25T14:09:25;98.87;;;95.07;;
17414;SDS011;8825;48.086;16.426;2024-03-25T14:11:53;104.00;;;99.97;;
17414;SDS011;8825;48.086;16.426;2024-03-25T14:14:20;85.97;;;82.50;;
17414;SDS011;8825;48.086;16.426;2024-03-25T14:16:49;139.13;;;133.73;;
17414;SDS011;8825;48.086;16.426;2024-03-25T14:19:16;130.70;;;125.70;;
17414;SDS011;8825;48.086;16.426;2024-03-25T14:21:44;121.67;;;116.97;;
17414;SDS011;8825;48.086;16.426;2024-03-25T14:24:11;171.53;;;165.10;;